createdAt,value
2023-05-04T00:01:04.312Z,0.10
2023-05-04T00:02:37.709Z,0.10
2023-05-04T00:04:11.153Z,0.10
2023-05-04T00:05:44.394Z,0.10
2023-05-04T00:07:17.637Z,0.10
2023-05-04T00:08:50.808Z,0.10
2023-05-04T00:10:24.168Z,0.10
2023-05-04T00:11:57.162Z,0.10
2023-05-04T00:15:03.240Z,0.10
2023-05-04T00:16:37.043Z,0.10
2023-05-04T00:18:10.358Z,0.10
2023-05-04T00:19:45.092Z,0.10
2023-05-04T00:21:21.152Z,0.10
2023-05-04T00:22:54.206Z,0.10
2023-05-04T00:24:28.048Z,0.10
2023-05-04T00:26:01.985Z,0.10
2023-05-04T00:27:35.830Z,0.10
2023-05-04T00:29:09.232Z,0.10
2023-05-04T00:30:45.369Z,0.10
2023-05-04T00:32:18.915Z,0.10
2023-05-04T00:33:52.283Z,0.10
2023-05-04T00:35:26.055Z,0.10
2023-05-04T00:36:59.258Z,0.20
2023-05-04T00:38:47.584Z,0.10
2023-05-04T00:40:21.390Z,0.10
2023-05-04T00:41:54.474Z,0.10
2023-05-04T00:43:27.802Z,0.10
2023-05-04T00:45:01.010Z,0.10
2023-05-04T00:48:08.522Z,0.13
2023-05-04T00:49:41.917Z,0.10
2023-05-04T00:51:16.902Z,0.10
2023-05-04T00:52:51.103Z,0.10
2023-05-04T00:54:26.329Z,0.10
2023-05-04T00:55:59.682Z,0.10
2023-05-04T00:57:32.667Z,0.10
2023-05-04T00:59:05.941Z,0.10
2023-05-04T01:00:39.185Z,0.17
2023-05-04T01:02:12.330Z,0.10
2023-05-04T01:03:46.293Z,0.10
2023-05-04T01:05:19.819Z,0.10
2023-05-04T01:07:05.111Z,0.10
2023-05-04T01:08:46.057Z,0.10
2023-05-04T01:10:30.539Z,0.10
2023-05-04T01:12:09.356Z,0.10
2023-05-04T01:13:44.549Z,0.10
2023-05-04T01:15:18.746Z,0.10
2023-05-04T01:16:56.575Z,0.10
2023-05-04T01:18:30.348Z,0.10
2023-05-04T01:20:04.465Z,0.00
2023-05-04T01:21:40.958Z,0.10
2023-05-04T01:23:14.952Z,0.10
2023-05-04T01:24:49.071Z,0.00
2023-05-04T01:26:30.836Z,0.08
2023-05-04T01:28:21.344Z,0.00
2023-05-04T01:30:09.317Z,0.00
2023-05-04T01:31:45.303Z,0.00
2023-05-04T01:33:20.115Z,0.00
2023-05-04T01:34:53.616Z,0.00
2023-05-04T01:36:27.045Z,0.00
2023-05-04T01:38:00.590Z,0.00
2023-05-04T01:39:37.212Z,0.10
2023-05-04T01:41:10.255Z,0.00
2023-05-04T01:42:43.500Z,0.00
2023-05-04T01:44:18.035Z,0.00
2023-05-04T01:45:51.021Z,0.00
2023-05-04T01:47:24.460Z,0.10
2023-05-04T01:48:57.846Z,0.00
2023-05-04T01:50:31.064Z,0.00
2023-05-04T01:52:04.140Z,0.00
2023-05-04T01:53:37.489Z,0.00
2023-05-04T01:55:10.849Z,0.10
2023-05-04T01:56:44.125Z,0.00
2023-05-04T01:58:20.074Z,0.00
2023-05-04T01:59:54.068Z,0.00
2023-05-04T02:01:27.301Z,0.00
2023-05-04T02:03:00.585Z,0.00
2023-05-04T02:04:34.360Z,0.00
2023-05-04T02:06:07.849Z,0.00
2023-05-04T02:07:42.162Z,0.00
2023-05-04T02:09:15.977Z,0.00
2023-05-04T02:10:49.199Z,0.00
2023-05-04T02:12:43.498Z,0.00
2023-05-04T02:14:16.570Z,0.00
2023-05-04T02:15:50.192Z,0.00
2023-05-04T02:17:23.610Z,0.00
2023-05-04T02:18:56.966Z,0.00
2023-05-04T02:20:30.204Z,0.00
2023-05-04T02:22:03.204Z,0.00
2023-05-04T02:23:36.361Z,0.00
2023-05-04T02:25:10.031Z,0.00
2023-05-04T02:26:43.229Z,0.00
2023-05-04T02:28:16.673Z,0.00
2023-05-04T02:29:49.835Z,0.00
2023-05-04T02:31:23.062Z,0.00
2023-05-04T02:32:56.173Z,0.00
2023-05-04T02:34:30.181Z,0.00
2023-05-04T02:36:03.383Z,0.00
2023-05-04T02:37:37.149Z,0.00
2023-05-04T02:39:10.614Z,0.00
2023-05-04T02:40:43.845Z,0.00
2023-05-04T02:42:17.677Z,0.00
2023-05-04T02:43:50.752Z,0.00
2023-05-04T02:45:23.990Z,0.00
2023-05-04T02:46:57.310Z,0.00
2023-05-04T02:48:31.166Z,0.00
2023-05-04T02:50:04.883Z,0.00
2023-05-04T02:51:38.597Z,0.00
2023-05-04T02:53:11.704Z,0.00
2023-05-04T02:54:44.865Z,0.00
2023-05-04T02:56:18.110Z,0.00
2023-05-04T02:57:51.151Z,0.00
2023-05-04T02:59:24.310Z,0.00
2023-05-04T03:00:57.793Z,0.00
2023-05-04T03:02:31.219Z,0.00
2023-05-04T03:04:04.383Z,0.00
2023-05-04T03:05:37.587Z,0.00
2023-05-04T03:07:11.078Z,0.00
2023-05-04T03:08:44.474Z,0.00
2023-05-04T03:10:17.765Z,0.00
2023-05-04T03:11:51.222Z,0.00
2023-05-04T03:13:24.490Z,0.00
2023-05-04T03:14:57.734Z,0.00
2023-05-04T03:16:30.954Z,0.00
2023-05-04T03:18:04.454Z,0.00
2023-05-04T03:19:38.287Z,0.00
2023-05-04T03:21:12.963Z,0.00
2023-05-04T03:22:46.137Z,0.00
2023-05-04T03:24:19.675Z,0.00
2023-05-04T03:25:53.758Z,0.00
2023-05-04T03:27:27.334Z,0.00
2023-05-04T03:29:00.638Z,0.00
2023-05-04T03:30:34.019Z,0.00
2023-05-04T03:32:08.945Z,0.00
2023-05-04T03:33:42.721Z,0.00
2023-05-04T03:35:19.090Z,0.00
2023-05-04T03:36:57.989Z,0.00
2023-05-04T03:38:32.104Z,0.00
2023-05-04T03:40:07.069Z,0.00
2023-05-04T03:41:40.476Z,0.00
2023-05-04T03:43:13.915Z,0.00
2023-05-04T03:44:47.528Z,0.00
2023-05-04T03:46:21.662Z,0.00
2023-05-04T03:47:57.804Z,0.00
2023-05-04T03:49:32.193Z,0.00
2023-05-04T03:51:06.611Z,0.00
2023-05-04T03:52:40.169Z,0.00
2023-05-04T03:54:14.053Z,0.00
2023-05-04T03:55:47.114Z,0.00
2023-05-04T03:57:20.437Z,0.00
2023-05-04T03:58:54.153Z,0.00
2023-05-04T04:00:31.790Z,0.00
2023-05-04T04:02:14.565Z,0.00
2023-05-04T04:03:48.019Z,0.00
2023-05-04T04:05:21.713Z,0.00
2023-05-04T04:06:57.213Z,0.00
2023-05-04T04:08:30.828Z,0.00
2023-05-04T04:10:04.353Z,0.00
2023-05-04T04:11:38.447Z,0.00
2023-05-04T04:13:11.979Z,0.00
2023-05-04T04:14:45.756Z,0.00
2023-05-04T04:16:20.829Z,0.00
2023-05-04T04:17:54.068Z,0.00
2023-05-04T04:19:27.693Z,0.00
2023-05-04T04:21:01.221Z,0.00
2023-05-04T04:22:34.310Z,0.00
2023-05-04T04:24:07.903Z,0.00
2023-05-04T04:25:44.056Z,0.00
2023-05-04T04:27:18.038Z,0.00
2023-05-04T04:28:51.241Z,0.00
2023-05-04T04:30:24.513Z,0.00
2023-05-04T04:32:01.037Z,0.00
2023-05-04T04:33:34.944Z,0.00
2023-05-04T04:35:08.775Z,0.00
2023-05-04T04:36:42.017Z,0.00
2023-05-04T04:38:15.419Z,0.00
2023-05-04T04:39:48.584Z,0.00
2023-05-04T04:41:21.809Z,0.00
2023-05-04T04:42:55.325Z,0.00
2023-05-04T04:44:28.880Z,0.00
2023-05-04T04:46:02.727Z,0.00
2023-05-04T04:47:36.312Z,0.00
2023-05-04T04:49:09.666Z,0.00
2023-05-04T04:50:42.909Z,0.00
2023-05-04T04:52:17.998Z,0.00
2023-05-04T04:53:51.942Z,0.00
2023-05-04T04:55:25.964Z,0.00
2023-05-04T04:56:59.803Z,0.00
2023-05-04T04:58:32.906Z,0.00
2023-05-04T05:00:14.628Z,0.00
2023-05-04T05:01:48.972Z,0.00
2023-05-04T05:03:22.533Z,0.00
2023-05-04T05:04:56.026Z,0.00
2023-05-04T05:06:29.310Z,0.00
2023-05-04T05:08:02.965Z,0.00
2023-05-04T05:09:36.398Z,0.00
2023-05-04T05:11:09.921Z,0.00
2023-05-04T05:12:43.558Z,0.00
2023-05-04T05:14:16.985Z,0.00
2023-05-04T05:15:50.525Z,0.00
2023-05-04T05:17:23.689Z,0.00
2023-05-04T05:18:57.246Z,0.00
2023-05-04T05:20:30.567Z,0.00
2023-05-04T05:22:05.194Z,0.00
2023-05-04T05:23:38.601Z,0.00
2023-05-04T05:25:12.565Z,0.00
2023-05-04T05:26:46.003Z,0.00
2023-05-04T05:28:19.391Z,0.00
2023-05-04T05:29:52.676Z,0.00
2023-05-04T05:31:26.128Z,0.00
2023-05-04T05:32:59.643Z,0.00
2023-05-04T05:34:33.486Z,0.00
2023-05-04T05:36:07.049Z,0.00
2023-05-04T05:37:40.815Z,0.00
2023-05-04T05:39:14.140Z,0.00
2023-05-04T05:40:48.606Z,0.00
2023-05-04T05:42:22.044Z,0.00
2023-05-04T05:43:55.082Z,0.00
2023-05-04T05:45:28.541Z,0.00
2023-05-04T05:47:02.791Z,0.00
2023-05-04T05:48:36.229Z,0.00
2023-05-04T05:50:09.779Z,0.00
2023-05-04T05:51:43.113Z,0.00
2023-05-04T05:53:16.402Z,0.00
2023-05-04T05:54:49.666Z,0.00
2023-05-04T05:56:22.850Z,0.00
2023-05-04T05:57:56.191Z,0.00
2023-05-04T05:59:29.240Z,0.00
2023-05-04T06:01:02.744Z,0.00
2023-05-04T06:02:36.051Z,0.00
2023-05-04T06:04:09.919Z,0.00
2023-05-04T06:05:43.312Z,0.00
2023-05-04T06:07:16.702Z,0.00
2023-05-04T06:08:50.077Z,0.00
2023-05-04T06:10:23.577Z,0.00
2023-05-04T06:11:56.759Z,0.00
2023-05-04T06:13:30.171Z,0.00
2023-05-04T06:15:03.860Z,0.00
2023-05-04T06:16:37.426Z,0.00
2023-05-04T06:18:10.474Z,0.00
2023-05-04T06:19:44.010Z,0.00
2023-05-04T06:21:17.322Z,0.00
2023-05-04T06:22:50.741Z,0.00
2023-05-04T06:24:25.594Z,0.00
2023-05-04T06:25:58.945Z,0.00
2023-05-04T06:27:33.281Z,0.00
2023-05-04T06:29:06.489Z,0.00
2023-05-04T06:30:39.548Z,0.00
2023-05-04T06:32:13.160Z,0.00
2023-05-04T06:33:46.554Z,0.00
2023-05-04T06:35:19.977Z,0.00
2023-05-04T06:36:53.111Z,0.00
2023-05-04T06:38:26.253Z,0.00
2023-05-04T06:39:59.449Z,0.00
2023-05-04T06:41:32.649Z,0.00
2023-05-04T06:43:05.794Z,0.00
2023-05-04T06:44:39.866Z,0.00
2023-05-04T06:46:13.342Z,0.00
2023-05-04T06:47:47.050Z,0.00
2023-05-04T06:49:20.257Z,0.00
2023-05-04T06:50:53.739Z,0.00
2023-05-04T06:52:30.089Z,0.00
2023-05-04T06:54:03.705Z,0.00
2023-05-04T06:55:37.751Z,0.00
2023-05-04T06:57:11.801Z,0.00
2023-05-04T06:58:45.241Z,0.00
2023-05-04T07:00:19.177Z,0.00
2023-05-04T07:01:52.468Z,0.00
2023-05-04T07:03:25.936Z,0.00
2023-05-04T07:04:59.184Z,0.00
2023-05-04T07:06:33.073Z,0.00
2023-05-04T07:08:06.684Z,0.00
2023-05-04T07:09:39.962Z,0.00
2023-05-04T07:11:13.053Z,0.00
2023-05-04T07:12:46.468Z,0.00
2023-05-04T07:14:19.869Z,0.00
2023-05-04T07:15:52.994Z,0.00
2023-05-04T07:17:26.588Z,0.00
2023-05-04T07:18:59.876Z,0.00
2023-05-04T07:20:33.450Z,0.00
2023-05-04T07:22:06.499Z,0.00
2023-05-04T07:23:39.741Z,0.00
2023-05-04T07:25:13.071Z,0.00
2023-05-04T07:26:46.746Z,0.00
2023-05-04T07:28:20.038Z,0.00
2023-05-04T07:29:53.334Z,0.00
2023-05-04T07:31:29.356Z,0.00
2023-05-04T07:33:04.068Z,0.00
2023-05-04T07:34:45.148Z,0.00
2023-05-04T07:36:19.801Z,0.00
2023-05-04T07:37:53.045Z,0.00
2023-05-04T07:39:26.414Z,0.00
2023-05-04T07:40:59.942Z,0.00
2023-05-04T07:42:33.258Z,0.00
2023-05-04T07:44:09.272Z,0.00
2023-05-04T07:45:42.556Z,0.00
2023-05-04T07:47:15.986Z,0.00
2023-05-04T07:48:49.755Z,0.00
2023-05-04T07:50:22.965Z,0.00
2023-05-04T07:51:56.642Z,0.00
2023-05-04T07:53:30.204Z,0.00
2023-05-04T07:55:03.583Z,0.00
2023-05-04T07:56:37.000Z,0.00
2023-05-04T07:58:10.515Z,0.00
2023-05-04T07:59:43.875Z,0.00
2023-05-04T08:01:17.444Z,0.00
2023-05-04T08:02:50.668Z,0.00
2023-05-04T08:04:24.574Z,0.00
2023-05-04T08:05:57.801Z,0.00
2023-05-04T08:07:30.870Z,0.00
2023-05-04T08:09:04.197Z,0.00
2023-05-04T08:10:38.124Z,0.00
2023-05-04T08:12:12.608Z,0.00
2023-05-04T08:13:50.479Z,0.00
2023-05-04T08:15:24.058Z,0.00
2023-05-04T08:16:57.725Z,0.00
2023-05-04T08:18:31.267Z,0.00
2023-05-04T08:20:05.077Z,0.00
2023-05-04T08:21:38.595Z,0.00
2023-05-04T08:23:11.920Z,0.00
2023-05-04T08:24:47.726Z,0.00
2023-05-04T08:26:21.080Z,0.00
2023-05-04T08:27:54.622Z,0.00
2023-05-04T08:29:27.909Z,0.00
2023-05-04T08:31:01.251Z,0.00
2023-05-04T08:32:37.430Z,0.00
2023-05-04T08:34:10.826Z,0.00
2023-05-04T08:35:44.213Z,0.00
2023-05-04T08:37:17.344Z,0.00
2023-05-04T08:38:51.201Z,0.00
2023-05-04T08:40:24.745Z,0.00
2023-05-04T08:41:57.793Z,0.00
2023-05-04T08:43:31.386Z,0.00
2023-05-04T08:45:05.538Z,0.00
2023-05-04T08:46:43.806Z,0.00
2023-05-04T08:48:16.989Z,0.00
2023-05-04T08:49:50.221Z,0.00
2023-05-04T08:51:23.649Z,0.00
2023-05-04T08:53:01.484Z,0.00
2023-05-04T08:54:40.145Z,0.00
2023-05-04T08:56:14.831Z,0.00
2023-05-04T08:57:50.657Z,0.00
2023-05-04T08:59:26.102Z,0.00
2023-05-04T09:01:01.821Z,0.00
2023-05-04T09:02:37.100Z,0.00
2023-05-04T09:04:11.156Z,0.00
2023-05-04T09:05:46.854Z,0.00
2023-05-04T09:07:21.142Z,0.00
2023-05-04T09:08:54.383Z,0.00
2023-05-04T09:10:29.665Z,0.00
2023-05-04T09:12:03.542Z,0.00
2023-05-04T09:13:37.833Z,0.00
2023-05-04T09:15:18.508Z,0.00
2023-05-04T09:16:51.845Z,0.00
2023-05-04T09:18:37.569Z,0.00
2023-05-04T09:20:11.529Z,0.00
2023-05-04T09:21:45.107Z,0.00
2023-05-04T09:23:19.398Z,0.00
2023-05-04T09:24:54.147Z,0.00
2023-05-04T09:26:31.842Z,0.00
2023-05-04T09:28:05.040Z,0.00
2023-05-04T09:29:40.205Z,0.00
2023-05-04T09:31:13.762Z,0.00
2023-05-04T09:32:47.241Z,0.00
2023-05-04T09:34:23.814Z,0.00
2023-05-04T09:35:58.700Z,0.00
2023-05-04T09:37:32.303Z,0.00
2023-05-04T09:39:16.315Z,0.00
2023-05-04T09:40:50.007Z,0.00
2023-05-04T09:42:25.497Z,0.00
2023-05-04T09:43:58.930Z,0.00
2023-05-04T09:45:46.000Z,0.00
2023-05-04T09:47:19.265Z,0.00
2023-05-04T09:48:59.111Z,0.00
2023-05-04T09:50:33.676Z,0.00
2023-05-04T09:52:07.481Z,0.00
2023-05-04T09:53:43.721Z,0.00
2023-05-04T09:55:19.705Z,0.00
2023-05-04T09:56:59.105Z,0.00
2023-05-04T09:58:32.596Z,0.00
2023-05-04T10:00:06.591Z,0.00
2023-05-04T10:01:41.230Z,0.00
2023-05-04T10:03:16.876Z,0.00
2023-05-04T10:04:52.141Z,0.00
2023-05-04T10:06:25.542Z,0.00
2023-05-04T10:08:01.027Z,0.00
2023-05-04T10:09:35.388Z,0.00
2023-05-04T10:11:09.029Z,0.00
2023-05-04T10:12:43.010Z,0.00
2023-05-04T10:14:16.341Z,0.00
2023-05-04T10:16:15.772Z,0.00
2023-05-04T10:17:59.143Z,0.00
2023-05-04T10:19:48.232Z,0.00
2023-05-04T10:21:44.947Z,0.00
2023-05-04T10:23:41.917Z,0.00
2023-05-04T10:25:52.672Z,0.00
2023-05-04T10:27:57.036Z,0.00
2023-05-04T10:29:36.455Z,0.00
2023-05-04T10:31:10.097Z,0.00
2023-05-04T10:32:43.653Z,0.00
2023-05-04T10:34:33.955Z,0.00
2023-05-04T10:36:08.427Z,0.00
2023-05-04T10:37:54.793Z,0.00
2023-05-04T10:39:30.583Z,0.00
2023-05-04T10:41:17.829Z,0.00
2023-05-04T10:42:51.084Z,0.00
2023-05-04T10:44:24.625Z,0.00
2023-05-04T10:45:58.083Z,0.00
2023-05-04T10:47:36.234Z,0.00
2023-05-04T10:49:19.293Z,0.00
2023-05-04T10:50:52.460Z,0.00
2023-05-04T10:52:25.721Z,0.00
2023-05-04T10:54:01.817Z,0.00
2023-05-04T10:55:43.319Z,0.00
2023-05-04T10:57:17.890Z,0.00
2023-05-04T10:58:51.424Z,0.00
2023-05-04T11:00:36.399Z,0.00
2023-05-04T11:02:10.073Z,0.00
2023-05-04T11:03:44.048Z,0.00
2023-05-04T11:05:20.629Z,0.00
2023-05-04T11:07:03.249Z,0.00
2023-05-04T11:10:22.640Z,0.00
2023-05-04T11:11:56.866Z,0.00
2023-05-04T11:13:34.215Z,0.00
2023-05-04T11:15:09.620Z,0.00
2023-05-04T11:16:42.947Z,0.00
2023-05-04T11:18:28.846Z,0.00
2023-05-04T11:20:02.254Z,0.00
2023-05-04T11:21:36.421Z,0.00
2023-05-04T11:23:10.672Z,0.00
2023-05-04T11:24:46.173Z,0.00
2023-05-04T11:26:20.710Z,0.00
2023-05-04T11:27:54.581Z,0.00
2023-05-04T11:29:27.882Z,0.00
2023-05-04T11:31:01.139Z,0.00
2023-05-04T11:32:44.587Z,0.00
2023-05-04T11:34:21.481Z,0.00
2023-05-04T11:36:04.081Z,0.00
2023-05-04T11:37:41.245Z,0.00
2023-05-04T11:39:14.752Z,0.00
2023-05-04T11:40:48.729Z,0.00
2023-05-04T11:42:22.320Z,0.00
2023-05-04T11:43:55.701Z,0.00
2023-05-04T11:45:34.884Z,0.00
2023-05-04T11:47:08.596Z,0.00
2023-05-04T11:48:42.368Z,0.00
2023-05-04T11:50:17.760Z,0.00
2023-05-04T11:51:51.161Z,0.00
2023-05-04T11:53:24.371Z,0.00
2023-05-04T11:54:58.010Z,0.00
2023-05-04T11:56:41.768Z,0.00
2023-05-04T11:58:15.136Z,0.00
2023-05-04T11:59:51.607Z,0.00
2023-05-04T12:01:25.304Z,0.00
2023-05-04T12:02:58.805Z,0.00
2023-05-04T12:04:33.248Z,0.00
2023-05-04T12:06:07.860Z,0.00
2023-05-04T12:07:41.323Z,0.00
2023-05-04T12:09:14.513Z,0.00
2023-05-04T12:10:47.831Z,0.00
2023-05-04T12:12:21.709Z,0.00
2023-05-04T12:14:14.268Z,0.00
2023-05-04T12:15:47.276Z,0.00
2023-05-04T12:17:21.508Z,0.00
2023-05-04T12:19:05.152Z,0.00
2023-05-04T12:20:38.782Z,0.00
2023-05-04T12:22:11.982Z,0.00
2023-05-04T12:23:46.160Z,0.00
2023-05-04T12:25:20.078Z,0.00
2023-05-04T12:26:53.332Z,0.00
2023-05-04T12:28:27.170Z,0.00
2023-05-04T12:30:00.368Z,0.00
2023-05-04T12:31:33.458Z,0.00
2023-05-04T12:33:07.342Z,0.00
2023-05-04T12:34:40.725Z,0.00
2023-05-04T12:36:14.053Z,0.00
2023-05-04T12:37:48.046Z,0.00
2023-05-04T12:39:21.535Z,0.00
2023-05-04T12:40:55.703Z,0.00
2023-05-04T12:42:29.414Z,0.00
2023-05-04T12:44:03.213Z,0.00
2023-05-04T12:45:37.235Z,0.00
2023-05-04T12:47:10.413Z,0.00
2023-05-04T12:48:43.948Z,0.00
2023-05-04T12:50:17.152Z,0.00
2023-05-04T12:51:54.091Z,0.00
2023-05-04T12:53:32.331Z,0.00
2023-05-04T12:55:09.726Z,0.00
2023-05-04T12:56:42.890Z,0.00
2023-05-04T12:58:16.256Z,0.00
2023-05-04T12:59:49.188Z,0.00
2023-05-04T13:01:22.727Z,0.00
2023-05-04T13:02:55.725Z,0.00
2023-05-04T13:04:29.198Z,0.00
2023-05-04T13:06:02.140Z,0.00
2023-05-04T13:07:35.874Z,0.00
2023-05-04T13:09:09.663Z,0.00
2023-05-04T13:10:46.651Z,0.00
2023-05-04T13:12:19.783Z,0.00
2023-05-04T13:13:54.024Z,0.00
2023-05-04T13:15:31.109Z,0.00
2023-05-04T13:17:05.581Z,0.00
2023-05-04T13:18:39.188Z,0.00
2023-05-04T13:20:13.578Z,0.00
2023-05-04T13:21:46.616Z,0.00
2023-05-04T13:23:21.769Z,0.00
2023-05-04T13:24:54.903Z,0.00
2023-05-04T13:26:28.264Z,0.00
2023-05-04T13:28:01.496Z,0.00
2023-05-04T13:29:34.813Z,0.00
2023-05-04T13:31:09.011Z,0.00
2023-05-04T13:32:42.575Z,0.00
2023-05-04T13:34:16.215Z,0.00
2023-05-04T13:35:49.379Z,0.00
2023-05-04T13:37:22.617Z,0.00
2023-05-04T13:38:56.202Z,0.00
2023-05-04T13:40:29.281Z,0.00
2023-05-04T13:42:02.392Z,0.00
2023-05-04T13:43:35.473Z,0.00
2023-05-04T13:45:09.521Z,0.00
2023-05-04T13:46:42.748Z,0.00
2023-05-04T13:48:15.921Z,0.00
2023-05-04T13:49:50.065Z,0.00
2023-05-04T13:51:23.577Z,0.00
2023-05-04T13:52:59.729Z,0.00
2023-05-04T13:54:33.192Z,0.00
2023-05-04T13:56:07.053Z,0.00
2023-05-04T13:57:40.482Z,0.00
2023-05-04T13:59:13.515Z,0.00
2023-05-04T14:00:46.808Z,0.00
2023-05-04T14:02:20.135Z,0.00
2023-05-04T14:03:55.031Z,0.00
2023-05-04T14:05:31.187Z,0.00
2023-05-04T14:07:04.589Z,0.00
2023-05-04T14:08:40.830Z,0.00
2023-05-04T14:10:14.001Z,0.00
2023-05-04T14:11:47.969Z,0.00
2023-05-04T14:13:21.339Z,0.00
2023-05-04T14:14:54.564Z,0.00
2023-05-04T14:16:28.370Z,0.00
2023-05-04T14:18:01.924Z,0.00
2023-05-04T14:19:35.179Z,0.00
2023-05-04T14:21:08.519Z,0.00
2023-05-04T14:22:42.794Z,0.00
2023-05-04T14:24:16.218Z,0.00
2023-05-04T14:25:54.159Z,0.00
2023-05-04T14:27:28.006Z,0.00
2023-05-04T14:29:01.496Z,0.00
2023-05-04T14:30:34.660Z,0.00
2023-05-04T14:32:08.458Z,0.00
2023-05-04T14:33:42.961Z,0.00
2023-05-04T14:35:17.974Z,0.00
2023-05-04T14:36:53.160Z,0.00
2023-05-04T14:38:26.661Z,0.00
2023-05-04T14:39:59.926Z,0.00
2023-05-04T14:41:34.248Z,0.00
2023-05-04T14:43:07.586Z,0.00
2023-05-04T14:44:40.768Z,0.00
2023-05-04T14:46:14.203Z,0.00
2023-05-04T14:47:47.949Z,0.00
2023-05-04T14:49:35.534Z,0.00
2023-05-04T14:51:14.135Z,0.00
2023-05-04T14:52:47.459Z,0.00
2023-05-04T14:54:21.029Z,0.00
2023-05-04T14:55:54.369Z,0.00
2023-05-04T14:57:27.950Z,0.00
2023-05-04T14:59:01.924Z,0.00
2023-05-04T15:00:35.253Z,0.00
2023-05-04T15:02:08.793Z,0.00
2023-05-04T15:03:42.534Z,0.00
2023-05-04T15:05:16.911Z,0.00
2023-05-04T15:06:52.908Z,0.00
2023-05-04T15:08:26.078Z,0.00
2023-05-04T15:09:59.701Z,0.00
2023-05-04T15:11:33.089Z,0.00
2023-05-04T15:13:06.452Z,0.00
2023-05-04T15:14:39.908Z,0.00
2023-05-04T15:16:18.220Z,0.00
2023-05-04T15:17:52.166Z,0.00
2023-05-04T15:19:26.486Z,0.00
2023-05-04T15:20:59.617Z,0.00
2023-05-04T15:22:32.993Z,0.00
2023-05-04T15:24:06.422Z,0.00
2023-05-04T15:25:41.582Z,0.00
2023-05-04T15:27:14.769Z,0.00
2023-05-04T15:28:48.038Z,0.00
2023-05-04T15:30:22.033Z,0.10
2023-05-04T15:31:58.655Z,0.00
2023-05-04T15:33:32.603Z,0.00
2023-05-04T15:35:06.562Z,0.00
2023-05-04T15:36:40.164Z,0.00
2023-05-04T15:38:13.361Z,0.00
2023-05-04T15:39:46.764Z,0.00
2023-05-04T15:41:21.918Z,0.00
2023-05-04T15:42:55.182Z,0.00
2023-05-04T15:44:28.716Z,0.00
2023-05-04T15:46:02.112Z,0.00
2023-05-04T15:47:35.876Z,0.00
2023-05-04T15:49:09.450Z,0.00
2023-05-04T15:50:42.901Z,0.00
2023-05-04T15:52:16.164Z,0.00
2023-05-04T15:53:49.477Z,0.00
2023-05-04T15:55:26.360Z,0.00
2023-05-04T15:57:02.578Z,0.00
2023-05-04T15:58:35.899Z,0.00
2023-05-04T16:00:12.455Z,0.00
2023-05-04T16:01:46.160Z,0.00
2023-05-04T16:03:19.505Z,0.00
2023-05-04T16:04:52.875Z,0.00
2023-05-04T16:06:26.806Z,0.00
2023-05-04T16:08:00.004Z,0.00
2023-05-04T16:09:33.857Z,0.10
2023-05-04T16:11:08.432Z,0.00
2023-05-04T16:12:42.009Z,0.00
2023-05-04T16:14:15.815Z,0.00
2023-05-04T16:15:52.965Z,0.03
2023-05-04T16:17:26.660Z,0.00
2023-05-04T16:19:00.075Z,0.00
2023-05-04T16:20:33.328Z,0.00
2023-05-04T16:22:06.901Z,0.00
2023-05-04T16:23:45.479Z,0.00
2023-05-04T16:25:18.935Z,0.10
2023-05-04T16:26:54.490Z,0.00
2023-05-04T16:28:28.133Z,0.00
2023-05-04T16:30:01.519Z,0.10
2023-05-04T16:31:35.131Z,0.00
2023-05-04T16:33:08.833Z,0.05
2023-05-04T16:34:42.597Z,0.00
2023-05-04T16:36:15.783Z,0.10
2023-05-04T16:37:48.750Z,0.10
2023-05-04T16:40:55.443Z,0.00
2023-05-04T16:42:29.145Z,0.08
2023-05-04T16:44:02.517Z,0.05
2023-05-04T16:45:35.732Z,0.05
2023-05-04T16:47:09.322Z,0.00
2023-05-04T16:48:42.680Z,0.10
2023-05-04T16:50:15.922Z,0.10
2023-05-04T16:51:49.611Z,0.00
2023-05-04T16:53:24.119Z,0.10
2023-05-04T16:54:57.503Z,0.00
2023-05-04T16:56:30.699Z,0.10
2023-05-04T16:59:37.276Z,0.10
2023-05-04T17:01:13.424Z,0.10
2023-05-04T17:02:46.897Z,0.10
2023-05-04T17:04:21.274Z,0.10
2023-05-04T17:05:55.041Z,0.10
2023-05-04T17:07:28.879Z,0.10
2023-05-04T17:09:04.237Z,0.00
2023-05-04T17:10:37.601Z,0.10
2023-05-04T17:12:11.196Z,0.10
2023-05-04T17:13:44.320Z,0.10
2023-05-04T17:15:17.363Z,0.00
2023-05-04T17:18:23.994Z,0.10
2023-05-04T17:19:59.982Z,0.10
2023-05-04T17:21:33.445Z,0.10
2023-05-04T17:23:08.349Z,0.10
2023-05-04T17:24:45.585Z,0.10
2023-05-04T17:26:20.841Z,0.10
2023-05-04T17:27:58.895Z,0.03
2023-05-04T17:29:38.662Z,0.00
2023-05-04T17:31:16.220Z,0.10
2023-05-04T17:32:49.640Z,0.10
2023-05-04T17:34:23.559Z,0.10
2023-05-04T17:36:00.618Z,0.10
2023-05-04T17:37:38.010Z,0.10
2023-05-04T17:39:15.683Z,0.10
2023-05-04T17:40:52.867Z,0.10
2023-05-04T17:42:27.570Z,0.10
2023-05-04T17:44:04.053Z,0.10
2023-05-04T17:45:37.722Z,0.10
2023-05-04T17:47:11.027Z,0.10
2023-05-04T17:48:45.185Z,0.10
2023-05-04T17:50:18.359Z,0.10
2023-05-04T17:51:56.395Z,0.03
2023-05-04T17:53:30.198Z,0.10
2023-05-04T17:55:03.790Z,0.10
2023-05-04T17:56:37.533Z,0.10
2023-05-04T17:58:19.332Z,0.10
2023-05-04T17:59:59.326Z,0.00
2023-05-04T18:01:32.359Z,0.10
2023-05-04T18:03:05.972Z,0.10
2023-05-04T18:04:42.423Z,0.10
2023-05-04T18:06:16.742Z,0.10
2023-05-04T18:07:49.876Z,0.10
2023-05-04T18:09:25.192Z,0.10
2023-05-04T18:11:08.083Z,0.00
2023-05-04T18:12:42.034Z,0.10
2023-05-04T18:14:19.026Z,0.10
2023-05-04T18:15:53.285Z,0.10
2023-05-04T18:17:27.834Z,0.10
2023-05-04T18:19:01.025Z,0.10
2023-05-04T18:20:34.279Z,0.10
2023-05-04T18:22:08.207Z,0.10
2023-05-04T18:23:42.220Z,0.10
2023-05-04T18:25:16.077Z,0.10
2023-05-04T18:26:49.262Z,0.10
2023-05-04T18:28:34.520Z,0.10
2023-05-04T18:30:09.281Z,0.10
2023-05-04T18:31:42.608Z,0.10
2023-05-04T18:33:15.525Z,0.10
2023-05-04T18:36:25.300Z,0.10
2023-05-04T18:37:58.545Z,0.10
2023-05-04T18:39:32.294Z,0.10
2023-05-04T18:41:06.331Z,0.10
2023-05-04T18:42:39.679Z,0.10
2023-05-04T18:44:13.251Z,0.10
2023-05-04T18:45:46.485Z,0.10
2023-05-04T18:47:20.443Z,0.10
2023-05-04T18:48:53.941Z,0.10
2023-05-04T18:50:27.391Z,0.10
2023-05-04T18:52:04.013Z,0.10
2023-05-04T18:53:39.186Z,0.10
2023-05-04T18:55:12.774Z,0.10
2023-05-04T18:56:45.812Z,0.10
2023-05-04T18:59:52.454Z,0.10
2023-05-04T19:01:26.955Z,0.10
2023-05-04T19:03:00.210Z,0.10
2023-05-04T19:04:34.053Z,0.10
2023-05-04T19:06:09.724Z,0.10
2023-05-04T19:07:43.126Z,0.10
2023-05-04T19:09:16.559Z,0.10
2023-05-04T19:10:50.742Z,0.10
2023-05-04T19:12:24.402Z,0.10
2023-05-04T19:13:57.377Z,0.10
2023-05-04T19:17:07.031Z,0.10
2023-05-04T19:18:40.396Z,0.10
2023-05-04T19:20:14.366Z,0.10
2023-05-04T19:21:48.907Z,0.10
2023-05-04T19:23:22.305Z,0.10
2023-05-04T19:24:56.135Z,0.10
2023-05-04T19:26:29.289Z,0.10
2023-05-04T19:28:08.706Z,0.10
2023-05-04T19:29:41.855Z,0.10
2023-05-04T19:31:15.902Z,0.10
2023-05-04T19:32:49.180Z,0.10
2023-05-04T19:34:22.567Z,0.10
2023-05-04T19:35:56.938Z,0.10
2023-05-04T19:37:30.267Z,0.10
2023-05-04T19:39:03.730Z,0.10
2023-05-04T19:40:36.840Z,0.10
2023-05-04T19:42:10.086Z,0.10
2023-05-04T19:43:44.142Z,0.10
2023-05-04T19:45:18.428Z,0.10
2023-05-04T19:46:52.820Z,0.10
2023-05-04T19:48:25.818Z,0.10
2023-05-04T19:49:59.465Z,0.10
2023-05-04T19:51:33.713Z,0.10
2023-05-04T19:53:06.913Z,0.15
2023-05-04T19:54:41.587Z,0.10
2023-05-04T19:56:14.906Z,0.10
2023-05-04T19:57:50.192Z,0.10
2023-05-04T19:59:23.688Z,0.10
2023-05-04T20:00:56.990Z,0.10
2023-05-04T20:02:30.968Z,0.10
2023-05-04T20:04:05.131Z,0.10
2023-05-04T20:05:38.923Z,0.10
2023-05-04T20:07:12.580Z,0.10
2023-05-04T20:08:46.234Z,0.10
2023-05-04T20:10:19.546Z,0.10
2023-05-04T20:11:52.773Z,0.10
2023-05-04T20:13:26.076Z,0.10
2023-05-04T20:14:59.456Z,0.20
2023-05-04T20:16:32.923Z,0.10
2023-05-04T20:18:06.681Z,0.10
2023-05-04T20:19:43.312Z,0.10
2023-05-04T20:21:16.586Z,0.10
2023-05-04T20:22:52.601Z,0.10
2023-05-04T20:24:26.820Z,0.10
2023-05-04T20:26:00.354Z,0.10
2023-05-04T20:27:33.438Z,0.10
2023-05-04T20:29:06.641Z,0.10
2023-05-04T20:30:39.817Z,0.10
2023-05-04T20:32:13.150Z,0.10
2023-05-04T20:33:46.624Z,0.10
2023-05-04T20:35:20.242Z,0.10
2023-05-04T20:36:53.598Z,0.10
2023-05-04T20:38:26.935Z,0.10
2023-05-04T20:40:00.242Z,0.10
2023-05-04T20:41:33.993Z,0.10
2023-05-04T20:43:07.113Z,0.10
2023-05-04T20:44:40.236Z,0.10
2023-05-04T20:46:13.928Z,0.10
2023-05-04T20:47:47.144Z,0.10
2023-05-04T20:49:20.458Z,0.10
2023-05-04T20:51:02.787Z,0.10
2023-05-04T20:52:46.436Z,0.10
2023-05-04T20:54:19.958Z,0.10
2023-05-04T20:55:53.387Z,0.10
2023-05-04T20:57:26.477Z,0.10
2023-05-04T20:59:00.411Z,0.10
2023-05-04T21:00:34.217Z,0.10
2023-05-04T21:02:08.161Z,0.10
2023-05-04T21:03:41.589Z,0.10
2023-05-04T21:05:14.888Z,0.10
2023-05-04T21:06:48.441Z,0.10
2023-05-04T21:08:22.088Z,0.10
2023-05-04T21:09:58.855Z,0.10
2023-05-04T21:11:32.136Z,0.10
2023-05-04T21:13:05.621Z,0.10
2023-05-04T21:14:38.843Z,0.10